Time;durP1;ratioP1;P1;durP2;ratioP2;P2;SDS_P1;SDS_P2;PMS_P1;PMS_P2;Temp;Humidity;BMP_temperature;BMP_pressure;BME280_temperature;BME280_humidity;BME280_pressure;Samples;Min_cycle;Max_cycle;Signal;HPM_P1;HPM_P2
2021/04/14 00:00:52;;;;;;;3.40;2.90;;;;;;;;;;4992135;28;20715;-74
2021/04/14 00:03:20;;;;;;;3.65;3.33;;;;;;;;;;5009906;28;20423;-73
2021/04/14 00:05:46;;;;;;;3.20;2.75;;;;;;;;;;4991906;28;20439;-72
2021/04/14 00:08:13;;;;;;;3.30;3.00;;;;;;;;;;5009147;28;20997;-73
2021/04/14 00:10:39;;;;;;;4.53;2.90;;;;;;;;;;5009441;28;20476;-72
2021/04/14 00:13:07;;;;;;;4.40;3.50;;;;;;;;;;4991604;28;20492;-72
2021/04/14 00:15:42;;;;;;;3.13;2.80;;;;;;;;;;5009842;28;20417;-73
2021/04/14 00:18:09;;;;;;;2.90;2.60;;;;;;;;;;5009112;28;20377;-72
2021/04/14 00:20:35;;;;;;;3.67;3.15;;;;;;;;;;5009887;28;20373;-72
2021/04/14 00:23:02;;;;;;;3.37;3.00;;;;;;;;;;4991445;28;20890;-72
2021/04/14 00:25:30;;;;;;;3.43;2.90;;;;;;;;;;5009984;28;20373;-74
2021/04/14 00:27:56;;;;;;;3.78;2.70;;;;;;;;;;4991380;28;20396;-75
2021/04/14 00:30:23;;;;;;;3.10;2.70;;;;;;;;;;5009408;28;20377;-73
2021/04/14 00:32:49;;;;;;;3.78;2.97;;;;;;;;;;4991755;28;20384;-74
2021/04/14 00:35:16;;;;;;;4.47;3.33;;;;;;;;;;5009039;28;20381;-73
2021/04/14 00:37:42;;;;;;;3.65;3.30;;;;;;;;;;5009517;28;20742;-73
2021/04/14 00:40:13;;;;;;;3.42;3.13;;;;;;;;;;5009613;28;20388;-73
2021/04/14 00:42:39;;;;;;;4.03;2.92;;;;;;;;;;4995699;28;20428;-73
2021/04/14 00:45:06;;;;;;;4.20;3.13;;;;;;;;;;4995318;28;20569;-73
2021/04/14 00:47:32;;;;;;;4.68;3.25;;;;;;;;;;4996020;28;20392;-73
2021/04/14 00:49:58;;;;;;;5.30;3.25;;;;;;;;;;5012703;28;20381;-73
2021/04/14 00:52:25;;;;;;;4.75;3.40;;;;;;;;;;5013421;28;20717;-73
2021/04/14 00:54:51;;;;;;;4.07;3.20;;;;;;;;;;5013611;28;20459;-73
2021/04/14 00:57:18;;;;;;;3.97;3.08;;;;;;;;;;5012488;28;20404;-73
2021/04/14 00:59:44;;;;;;;3.70;3.38;;;;;;;;;;5013307;28;20399;-73
2021/04/14 01:02:10;;;;;;;3.50;3.20;;;;;;;;;;4995004;28;20392;-73
2021/04/14 01:04:36;;;;;;;4.65;3.20;;;;;;;;;;4995744;28;20380;-73
2021/04/14 01:07:02;;;;;;;3.40;3.10;;;;;;;;;;5012606;28;20472;-73
2021/04/14 01:09:28;;;;;;;3.55;3.22;;;;;;;;;;4995328;28;20973;-73
2021/04/14 01:11:56;;;;;;;3.72;3.42;;;;;;;;;;5013081;28;20385;-73
2021/04/14 01:14:22;;;;;;;4.50;3.53;;;;;;;;;;4995051;28;20873;-73
2021/04/14 01:16:48;;;;;;;4.45;3.63;;;;;;;;;;4995319;28;20499;-73
2021/04/14 01:19:14;;;;;;;4.00;3.15;;;;;;;;;;5012660;28;21184;-73
2021/04/14 01:21:42;;;;;;;3.42;3.13;;;0.50;99.90;;;;;;4995453;28;20396;-73
2021/04/14 01:24:12;;;;;;;4.40;3.00;;;;;;;;;;5011985;28;20468;-74
2021/04/14 01:26:39;;;;;;;4.10;2.83;;;;;;;;;;4995385;28;20924;-73
2021/04/14 01:29:06;;;;;;;4.07;3.17;;;;;;;;;;5012003;28;20381;-73
2021/04/14 01:31:32;;;;;;;3.87;3.10;;;;;;;;;;5012454;28;20377;-73
2021/04/14 01:34:02;;;;;;;3.92;3.13;;;;;;;;;;4994797;28;20381;-74
2021/04/14 01:36:28;;;;;;;5.20;3.55;;;;;;;;;;5012388;28;20769;-73
2021/04/14 01:38:54;;;;;;;3.58;2.85;;;;;;;;;;4994786;28;20385;-73
2021/04/14 01:41:20;;;;;;;4.30;3.90;;;;;;;;;;5011504;28;20404;-73
2021/04/14 01:43:46;;;;;;;3.50;2.80;;;;;;;;;;5012572;28;20405;-72
2021/04/14 01:46:12;;;;;;;4.03;3.17;;;;;;;;;;5011829;28;20396;-73
2021/04/14 01:48:39;;;;;;;4.05;3.40;;;;;;;;;;4994979;28;20377;-72
2021/04/14 01:51:05;;;;;;;3.50;3.20;;;;;;;;;;5011572;28;20403;-74
2021/04/14 01:53:31;;;;;;;3.55;2.92;;;;;;;;;;4993939;28;20790;-72
2021/04/14 01:55:58;;;;;;;3.97;3.03;;;;;;;;;;5012314;28;20408;-75
2021/04/14 01:58:25;;;;;;;5.68;2.97;;;;;;;;;;5012204;28;20377;-72
2021/04/14 02:00:56;;;;;;;3.03;2.70;;;;;;;;;;4994602;28;20381;-72
2021/04/14 02:03:22;;;;;;;3.07;2.60;;;;;;;;;;5012034;28;20532;-72
2021/04/14 02:05:49;;;;;;;5.43;3.10;;;;;;;;;;4994785;28;20381;-72
2021/04/14 02:08:15;;;;;;;3.80;2.80;;;;;;;;;;5011095;28;20482;-72
2021/04/14 02:10:41;;;;;;;4.80;3.08;;;;;;;;;;5012173;28;20504;-73
2021/04/14 02:13:16;;;;;;;4.00;3.20;;;0.40;99.90;;;;;;4993725;28;20484;-75
2021/04/14 02:15:43;;;;;;;3.80;3.40;;;;;;;;;;4994123;28;20419;-74
2021/04/14 02:18:09;;;;;;;2.85;2.65;;;;;;;;;;5011027;28;20381;-74
2021/04/14 02:20:35;;;;;;;3.90;3.30;;;;;;;;;;5011693;28;20695;-74
2021/04/14 02:23:11;;;;;;;3.90;2.63;;;;;;;;;;4993742;28;20389;-76
2021/04/14 02:25:37;;;;;;;3.03;2.70;;;;;;;;;;4994233;28;20764;-74
2021/04/14 02:28:03;;;;;;;3.80;3.10;;;;;;;;;;5011127;28;20384;-75
2021/04/14 02:30:29;;;;;;;3.67;3.20;;;;;;;;;;5011354;28;20377;-74
2021/04/14 02:32:55;;;;;;;3.75;3.30;;;;;;;;;;4994027;28;20385;-74
2021/04/14 02:35:26;;;;;;;3.38;3.08;;;;;;;;;;5010488;28;20468;-72
2021/04/14 02:37:52;;;;;;;5.10;3.40;;;;;;;;;;5011749;28;20416;-73
2021/04/14 02:40:19;;;;;;;4.20;3.10;;;;;;;;;;4992833;28;20471;-72
2021/04/14 02:42:45;;;;;;;5.33;3.10;;;;;;;;;;5011632;28;20453;-72
2021/04/14 02:45:12;;;;;;;4.30;3.10;;;;;;;;;;4993116;28;20404;-74
2021/04/14 02:47:39;;;;;;;3.67;3.00;;;;;;;;;;4993891;28;20392;-74
2021/04/14 02:50:05;;;;;;;5.32;3.00;;;;;;;;;;4993051;28;20879;-74
2021/04/14 02:52:32;;;;;;;4.68;3.25;;;;;;;;;;5011397;28;20412;-72
2021/04/14 02:54:58;;;;;;;3.97;3.45;;;;;;;;;;4993710;28;20377;-72
2021/04/14 02:57:24;;;;;;;3.13;2.83;;;;;;;;;;5010078;28;20396;-73
2021/04/14 02:59:50;;;;;;;3.70;3.00;;;;;;;;;;5011171;28;20420;-73
2021/04/14 03:02:17;;;;;;;3.20;2.70;;;;;;;;;;5010435;28;20373;-73
2021/04/14 03:04:43;;;;;;;3.10;2.50;;;;;;;;;;5010992;28;20369;-72
2021/04/14 03:07:09;;;;;;;3.88;3.30;;;;;;;;;;4992593;28;20863;-72
2021/04/14 03:09:35;;;;;;;4.47;3.13;;;;;;;;;;5010940;28;20416;-73
2021/04/14 03:12:01;;;;;;;5.63;3.55;;;;;;;;;;4993318;28;20389;-73
2021/04/14 03:14:27;;;;;;;3.97;3.08;;;;;;;;;;5010471;28;20389;-72
2021/04/14 03:16:53;;;;;;;3.80;3.40;;;;;;;;;;5010840;28;20457;-72
2021/04/14 03:19:19;;;;;;;3.67;2.88;;;;;;;;;;5009868;28;20446;-72
2021/04/14 03:21:45;;;;;;;4.18;3.17;;;;;;;;;;5010737;28;20379;-73
2021/04/14 03:24:11;;;;;;;7.90;3.70;;;;;;;;;;4992344;28;20728;-72
2021/04/14 03:26:38;;;;;;;5.38;4.10;;;;;;;;;;4993092;28;20387;-72
2021/04/14 03:29:04;;;;;;;4.80;3.40;;;;;;;;;;5010426;28;20385;-73
2021/04/14 03:31:32;;;;;;;5.20;3.20;;;;;;;;;;5010318;28;20464;-72
2021/04/14 03:33:58;;;;;;;3.00;2.70;;;;;;;;;;5010468;28;20416;-72
2021/04/14 03:36:24;;;;;;;3.00;2.70;;;;;;;;;;5009437;28;20500;-72
2021/04/14 03:38:50;;;;;;;3.30;2.95;;;;;;;;;;5010824;28;20400;-72
2021/04/14 03:41:16;;;;;;;4.35;3.10;;;;;;;;;;5009598;28;20793;-72
2021/04/14 03:43:43;;;;;;;3.87;3.47;;;;;;;;;;4992888;28;20491;-73
2021/04/14 03:46:09;;;;;;;3.03;2.70;;;;;;;;;;4991741;28;20385;-73
2021/04/14 03:48:35;;;;;;;3.10;2.50;;;;;;;;;;5010496;28;20416;-73
2021/04/14 03:51:01;;;;;;;3.40;3.10;;;;;;;;;;4992551;28;20434;-74
2021/04/14 03:53:28;;;;;;;6.93;3.08;;;;;;;;;;4991779;28;20385;-73
2021/04/14 03:55:59;;;;;;;4.00;3.20;;;;;;;;;;4992488;28;20485;-73
2021/04/14 03:58:25;;;;;;;4.80;3.00;;;;;;;;;;5009697;28;20478;-73
2021/04/14 04:00:52;;;;;;;3.30;2.70;;;;;;;;;;5010098;28;20474;-73
2021/04/14 04:03:19;;;;;;;4.38;2.72;;;;;;;;;;4992279;28;20389;-73
2021/04/14 04:05:46;;;;;;;3.53;2.95;;;;;;;;;;5010456;28;20393;-74
2021/04/14 04:08:12;;;;;;;4.03;3.40;;;;;;;;;;4992006;28;20397;-73
2021/04/14 04:10:38;;;;;;;3.73;2.70;;;;;;;;;;5010066;28;20385;-73
2021/04/14 04:13:05;;;;;;;3.30;3.00;;;;;;;;;;5010192;28;20939;-73
2021/04/14 04:15:31;;;;;;;4.10;2.75;;;;;;;;;;5008813;28;20413;-73
2021/04/14 04:17:57;;;;;;;3.83;3.53;;;;;;;;;;5005807;28;20397;-74
2021/04/14 04:20:23;;;;;;;5.07;3.50;;;;;;;;;;5005797;28;20385;-72
2021/04/14 04:22:49;;;;;;;4.25;2.90;;;;;;;;;;5005557;28;20463;-73
2021/04/14 04:25:16;;;;;;;3.10;2.88;;;;;;;;;;4983594;28;20385;-72
2021/04/14 04:27:42;;;;;;;3.85;3.20;;;;;;;;;;4993736;28;20763;-73
2021/04/14 04:30:09;;;;;;;4.60;2.90;;;;;;;;;;4989748;28;20435;-74
2021/04/14 04:32:35;;;;;;;2.75;2.55;;;;;;;;;;5003711;28;20393;-72
2021/04/14 04:35:01;;;;;;;4.90;2.90;;;;;;;;;;5007289;28;20407;-73
2021/04/14 04:37:27;;;;;;;4.23;2.63;;;;;;;;;;5009773;28;20991;-73
2021/04/14 04:39:53;;;;;;;3.53;3.05;;;;;;;;;;4984065;28;20418;-73
2021/04/14 04:42:19;;;;;;;4.18;3.30;;;;;;;;;;5005437;28;20427;-73
2021/04/14 04:44:45;;;;;;;3.80;2.95;;;;;;;;;;5008927;28;20373;-73
2021/04/14 04:47:11;;;;;;;3.90;3.17;;;;;;;;;;5003749;28;20390;-73
2021/04/14 04:49:37;;;;;;;3.70;3.08;;;;;;;;;;5002692;28;20438;-75
2021/04/14 04:52:04;;;;;;;4.40;3.25;;;;;;;;;;5008470;28;20403;-73
2021/04/14 04:54:33;;;;;;;3.85;3.10;;;;;;;;;;4988581;28;20503;-73
2021/04/14 04:56:59;;;;;;;3.80;3.40;;;;;;;;;;4988554;28;20439;-74
2021/04/14 04:59:26;;;;;;;5.18;3.10;;;;;;;;;;5005703;28;20439;-75
2021/04/14 05:01:57;;;;;;;3.08;2.78;;;;;;;;;;4987476;28;20395;-73
2021/04/14 05:04:23;;;;;;;3.15;2.53;;;;;;;;;;5006277;28;20385;-74
2021/04/14 05:06:49;;;;;;;3.45;3.15;;;;;;;;;;4991247;28;20400;-74
2021/04/14 05:09:15;;;;;;;4.10;3.22;;;;;;;;;;4986680;28;20397;-75
2021/04/14 05:11:41;;;;;;;4.65;3.10;;;;;;;;;;5004011;28;20410;-74
2021/04/14 05:14:08;;;;;;;3.40;3.10;;;;;;;;;;4989738;28;20733;-75
2021/04/14 05:16:34;;;;;;;3.22;2.60;;;;;;;;;;5007764;28;20684;-74
2021/04/14 05:19:00;;;;;;;5.07;3.30;;;;;;;;;;5008209;28;20389;-75
2021/04/14 05:21:26;;;;;;;4.40;3.42;;;;;;;;;;5004615;28;20377;-73
2021/04/14 05:23:53;;;;;;;4.35;3.20;;;;;;;;;;4987886;28;20444;-74
2021/04/14 05:26:19;;;;;;;5.22;3.30;;;;;;;;;;5006913;28;20391;-74
2021/04/14 05:28:46;;;;;;;4.03;2.75;;;;;;;;;;5007915;28;20376;-76
2021/04/14 05:31:12;;;;;;;4.00;3.17;;;;;;;;;;5008041;28;20377;-75
2021/04/14 05:33:38;;;;;;;3.15;2.85;;;;;;;;;;5011259;28;20414;-74
2021/04/14 05:36:05;;;;;;;4.10;3.60;;;;;;;;;;5011396;28;20412;-73
2021/04/14 05:38:31;;;;;;;3.07;2.20;;;;;;;;;;4994917;28;20468;-74
2021/04/14 05:40:58;;;;;;;3.90;3.30;;;;;;;;;;4994388;28;20400;-73
2021/04/14 05:43:25;;;;;;;5.75;3.10;;;;;;;;;;4993708;28;20837;-73
2021/04/14 05:45:55;;;;;;;4.37;2.87;;;;;;;;;;4993835;28;20900;-73
2021/04/14 05:48:22;;;;;;;3.30;3.00;;;;;;;;;;5011197;28;20385;-73
2021/04/14 05:50:48;;;;;;;3.00;2.70;;;;;;;;;;5011465;28;20723;-73
2021/04/14 05:53:14;;;;;;;4.38;3.00;;;;;;;;;;4993337;28;20615;-74
2021/04/14 05:55:42;;;;;;;3.90;3.15;;;;;;;;;;5011345;28;20373;-74
2021/04/14 05:58:09;;;;;;;3.20;2.90;;;;;;;;;;5011320;28;20376;-73
2021/04/14 06:00:35;;;;;;;3.00;2.70;;;;;;;;;;4990631;28;20397;-72
2021/04/14 06:03:01;;;;;;;2.72;2.53;;;;;;;;;;5011526;28;20438;-73
2021/04/14 06:05:27;;;;;;;2.60;2.40;;;;;;;;;;5011092;28;20377;-73
2021/04/14 06:07:53;;;;;;;3.08;2.80;;;;;;;;;;5010911;28;21330;-71
2021/04/14 06:10:20;;;;;;;3.55;3.25;;;;;;;;;;5005136;28;20463;-73
2021/04/14 06:12:47;;;;;;;3.55;3.25;;;;;;;;;;5011566;28;20377;-73
2021/04/14 06:15:15;;;;;;;3.30;2.80;;;;;;;;;;4990671;28;20381;-73
2021/04/14 06:17:42;;;;;;;3.90;3.50;;;;;;;;;;4986548;28;20415;-73
2021/04/14 06:20:09;;;;;;;4.57;3.50;;;;;;;;;;5012724;28;20916;-75
2021/04/14 06:22:36;;;;;;;4.43;3.40;;;;;;;;;;5009850;28;20404;-74
2021/04/14 06:25:03;;;;;;;4.83;4.30;;;;;;;;;;5009269;28;20373;-74
2021/04/14 06:27:37;;;;;;;4.30;3.55;;;;;;;;;;5006345;28;20397;-74
2021/04/14 06:30:04;;;;;;;4.50;3.42;;;;;;;;;;5009511;28;20388;-75
2021/04/14 06:32:30;;;;;;;3.67;3.33;;;;;;;;;;5008808;28;20847;-75
2021/04/14 06:34:57;;;;;;;7.22;3.20;;;;;;;;;;5012216;28;20380;-72
2021/04/14 06:37:23;;;;;;;3.50;3.00;;;;;;;;;;5006666;28;20409;-74
2021/04/14 06:40:06;;;;;;;4.97;3.17;;;;;;;;;;5010095;28;20430;-73
2021/04/14 06:42:47;;;;;;;4.90;3.20;;;;;;;;;;5008259;28;20483;-73
2021/04/14 06:45:18;;;;;;;3.30;2.80;;;;;;;;;;5007757;28;20373;-73
2021/04/14 06:47:50;;;;;;;3.28;2.70;;;;;;;;;;5007622;28;20417;-75
2021/04/14 06:50:37;;;;;;;3.30;3.00;;;;;;;;;;5004978;28;20406;-73
2021/04/14 06:53:06;;;;;;;3.83;3.20;;;;;;;;;;5006379;28;20417;-74
2021/04/14 06:55:51;;;;;;;4.63;3.20;;;;;;;;;;5012849;28;20445;-74
2021/04/14 06:58:19;;;;;;;3.40;2.80;;;;;;;;;;5006761;28;20426;-76
2021/04/14 07:00:52;;;;;;;4.00;2.90;;;3.30;99.90;;;;;;5009093;28;20375;-69
2021/04/14 07:03:25;;;;;;;3.40;2.90;;;;;;;;;;5009784;28;20643;-75
2021/04/14 07:05:57;;;;;;;3.00;2.70;;;;;;;;;;5008429;28;20890;-73
2021/04/14 07:08:27;;;;;;;3.42;2.50;;;;;;;;;;5006526;28;20988;-73
2021/04/14 07:10:56;;;;;;;5.05;2.25;;;;;;;;;;5008939;28;20505;-73
2021/04/14 07:13:22;;;;;;;2.25;2.05;;;;;;;;;;5010180;28;20406;-75
2021/04/14 07:15:49;;;;;;;3.17;2.40;;;;;;;;;;4991701;28;20418;-73
2021/04/14 07:18:32;;;;;;;2.40;2.20;;;3.90;99.90;;;;;;4985400;28;20427;-74
2021/04/14 07:21:03;;;;;;;2.70;2.50;;;;;;;;;;5010762;28;20976;-73
2021/04/14 07:23:43;;;;;;;4.00;2.47;;;;;;;;;;5009691;28;20381;-74
2021/04/14 07:26:12;;;;;;;3.10;2.40;;;;;;;;;;5011745;28;20879;-72
2021/04/14 07:28:47;;;;;;;4.00;2.00;;;;;;;;;;5006674;28;20387;-72
2021/04/14 07:31:37;;;;;;;2.60;2.40;;;4.40;99.90;;;;;;5009894;28;20383;-73
2021/04/14 07:34:17;;;;;;;5.32;2.67;;;;;;;;;;5007350;28;20391;-72
2021/04/14 07:36:43;;;;;;;2.33;2.13;;;;;;;;;;5007300;28;20496;-73
2021/04/14 07:39:14;;;;;;;2.60;2.40;;;;;;;;;;5008995;28;20974;-72
2021/04/14 07:42:13;;;;;;;2.30;2.10;;;4.90;99.90;;;;;;5008618;28;20411;-75
2021/04/14 07:44:43;;;;;;;2.30;2.10;;;;;;;;;;5004460;28;20461;-72
2021/04/14 07:47:10;;;;;;;3.67;2.40;;;;;;;;;;5005659;28;20492;-72
2021/04/14 07:49:36;;;;;;;2.25;1.95;;;;;;;;;;5007910;28;20485;-71
2021/04/14 07:52:03;;;;;;;3.85;2.50;;;;;;;;;;5007905;28;20868;-73
2021/04/14 07:54:41;;;;;;;3.20;2.17;;;;;;;;;;5003569;28;20969;-71
2021/04/14 07:57:08;;;;;;;2.40;2.20;;;;;;;;;;5007252;28;20412;-75
2021/04/14 07:59:40;;;;;;;3.08;2.00;;;5.30;99.90;;;;;;4986973;28;20391;-73
2021/04/14 08:02:08;;;;;;;4.93;3.00;;;;;;;;;;5006184;28;20391;-73
2021/04/14 08:04:36;;;;;;;4.32;2.58;;;;;;;;;;5006390;28;20467;-74
2021/04/14 08:07:16;;;;;;;2.35;1.92;;;;;;;;;;5006804;28;20384;-73
2021/04/14 08:09:59;;;;;;;2.85;2.03;;;;;;;;;;5006103;28;20395;-73
2021/04/14 08:12:39;;;;;;;2.70;2.17;;;;;;;;;;5002851;28;20385;-73
2021/04/14 08:15:14;;;;;;;4.70;2.30;;;;;;;;;;5006174;28;20466;-73
2021/04/14 08:17:41;;;;;;;2.20;2.00;;;;;;;;;;5006211;28;20675;-73
2021/04/14 08:20:14;;;;;;;2.70;2.10;;;;;;;;;;5007576;28;20389;-72
2021/04/14 08:22:40;;;;;;;4.00;2.40;;;;;;;;;;5004737;28;20462;-71
2021/04/14 08:25:07;;;;;;;3.75;2.28;;;;;;;;;;5006937;28;20383;-73
2021/04/14 08:27:36;;;;;;;2.60;1.85;;;;;;;;;;5004781;28;21256;-72
2021/04/14 08:30:05;;;;;;;2.42;2.00;;;;;;;;;;5003064;28;20394;-71
2021/04/14 08:32:37;;;;;;;2.10;1.20;;;;;;;;;;5006040;28;20395;-71
2021/04/14 08:35:08;;;;;;;1.52;1.25;;;;;;;;;;5007941;28;20458;-72
2021/04/14 08:37:36;;;;;;;3.53;1.55;;;;;;;;;;5002648;28;20441;-72
2021/04/14 08:40:18;;;;;;;1.88;1.20;;;;;;;;;;5003606;28;20397;-73
2021/04/14 08:42:44;;;;;;;1.40;1.20;;;;;;;;;;5002193;28;20541;-72
2021/04/14 08:45:13;;;;;;;1.60;1.50;;;;;;;;;;5004354;28;20408;-72
2021/04/14 08:47:43;;;;;;;3.50;2.10;;;;;;;;;;5001717;28;20740;-73
2021/04/14 08:50:10;;;;;;;2.53;1.90;;;;;;;;;;5005416;28;20847;-75
2021/04/14 08:52:40;;;;;;;3.17;1.77;;;;;;;;;;5007631;28;20373;-73
2021/04/14 08:55:07;;;;;;;3.70;1.70;;;;;;;;;;5008494;28;20899;-72
2021/04/14 08:57:33;;;;;;;1.20;1.00;;;;;;;;;;4983447;28;21673;-72
2021/04/14 09:00:02;;;;;;;2.20;1.10;;;;;;;;;;5006262;28;20389;-73
2021/04/14 09:02:28;;;;;;;2.10;1.05;;;;;;;;;;5008092;28;20373;-71
2021/04/14 09:04:57;;;;;;;0.70;0.60;;;;;;;;;;5009308;28;20382;-73
2021/04/14 09:07:32;;;;;;;0.90;0.80;;;;;;;;;;5007848;28;21167;-74
2021/04/14 09:09:58;;;;;;;2.10;1.40;;;;;;;;;;5006292;28;20381;-72
2021/04/14 09:12:43;;;;;;;2.35;1.10;;;;;;;;;;5007822;28;20417;-72
2021/04/14 09:15:11;;;;;;;2.08;1.10;;;;;;;;;;5006154;28;20393;-75
2021/04/14 09:17:38;;;;;;;1.10;1.00;;;;;;;;;;5004013;28;21730;-74
2021/04/14 09:20:18;;;;;;;1.50;0.90;;;;;;;;;;5006261;28;20389;-73
2021/04/14 09:22:44;;;;;;;2.13;0.80;;;;;;;;;;5009177;28;20375;-72
2021/04/14 09:25:20;;;;;;;1.15;0.95;;;;;;;;;;5008273;28;20806;-73
2021/04/14 09:27:51;;;;;;;1.63;1.00;;;;;;;;;;5006832;28;20404;-72
2021/04/14 09:30:32;;;;;;;1.58;1.13;;;8.90;75.20;;;;;;5009579;28;20373;-73
2021/04/14 09:33:02;;;;;;;1.88;1.10;;;;;;;;;;5006382;28;20402;-74
2021/04/14 09:35:28;;;;;;;1.20;1.05;;;;;;;;;;5004988;28;20498;-73
2021/04/14 09:38:12;;;;;;;1.40;1.10;;;;;;;;;;5007153;28;20523;-72
2021/04/14 09:40:38;;;;;;;1.48;0.98;;;;;;;;;;5009271;28;20405;-74
2021/04/14 09:43:32;;;;;;;2.50;1.20;;;;;;;;;;5007522;28;20420;-71
2021/04/14 09:45:59;;;;;;;1.60;1.10;;;;;;;;;;5007741;28;20387;-72
2021/04/14 09:48:47;;;;;;;2.13;1.10;;;10.20;74.10;;;;;;5004992;28;20504;-75
2021/04/14 09:51:32;;;;;;;2.00;1.30;;;;;;;;;;4989884;28;21531;-73
2021/04/14 09:54:26;;;;;;;2.50;1.30;;;;;;;;;;5008060;28;20377;-72
2021/04/14 09:56:53;;;;;;;1.20;1.03;;;;;;;;;;5010013;28;20562;-72
2021/04/14 09:59:27;;;;;;;2.00;1.50;;;;;;;;;;5003561;28;20414;-72
2021/04/14 10:01:57;;;;;;;1.05;0.93;;;;;;;;;;5007570;28;20828;-74
2021/04/14 10:04:24;;;;;;;1.10;1.00;;;;;;;;;;5009794;28;20527;-75
2021/04/14 10:06:55;;;;;;;1.20;1.00;;;;;;;;;;4991816;28;20391;-75
2021/04/14 10:09:24;;;;;;;2.35;0.80;;;;;;;;;;5009013;28;21075;-75
2021/04/14 10:11:50;;;;;;;2.10;1.10;;;;;;;;;;5008467;28;20451;-75
2021/04/14 10:14:16;;;;;;;1.45;0.95;;;;;;;;;;4992415;28;20872;-75
2021/04/14 10:16:43;;;;;;;1.40;0.80;;;9.60;85.20;;;;;;5009456;28;21060;-75
2021/04/14 10:19:12;;;;;;;1.60;1.00;;;;;;;;;;5004659;28;20455;-75
2021/04/14 10:21:40;;;;;;;1.40;1.00;;;;;;;;;;5009102;28;20806;-74
2021/04/14 10:24:11;;;;;;;3.28;1.10;;;9.30;83.90;;;;;;5008539;28;20474;-73
2021/04/14 10:26:39;;;;;;;1.80;0.90;;;;;;;;;;5007689;28;20447;-73
2021/04/14 10:29:09;;;;;;;2.20;1.10;;;;;;;;;;5007451;28;20426;-73
2021/04/14 10:31:36;;;;;;;1.40;1.10;;;;;;;;;;5008436;28;20373;-73
2021/04/14 10:34:12;;;;;;;2.42;0.90;;;10.80;71.70;;;;;;5007123;28;21076;-73
2021/04/14 10:36:40;;;;;;;1.48;0.98;;;;;;;;;;5003900;28;20473;-73
2021/04/14 10:39:15;;;;;;;0.80;0.80;;;;;;;;;;4985078;28;20392;-73
2021/04/14 10:41:41;;;;;;;1.27;1.00;;;;;;;;;;5005524;28;20530;-73
2021/04/14 10:44:22;;;;;;;1.10;0.90;;;10.60;66.40;;;;;;5008450;28;20938;-73
2021/04/14 10:46:49;;;;;;;1.20;0.90;;;;;;;;;;5012991;28;20401;-75
2021/04/14 10:49:23;;;;;;;1.30;0.90;;;;;;;;;;5006421;28;20404;-74
2021/04/14 10:51:53;;;;;;;1.60;1.00;;;10.00;67.20;;;;;;5006476;28;20897;-73
2021/04/14 10:54:21;;;;;;;1.80;1.20;;;;;;;;;;5005120;28;20459;-75
2021/04/14 10:56:58;;;;;;;1.40;1.10;;;;;;;;;;5006417;28;21420;-74
2021/04/14 10:59:24;;;;;;;1.40;1.20;;;;;;;;;;5002916;28;20389;-75
2021/04/14 11:01:51;;;;;;;1.35;1.00;;;;;;;;;;5005618;28;20387;-73
2021/04/14 11:04:23;;;;;;;2.88;1.10;;;;;;;;;;5004084;28;20466;-72
2021/04/14 11:06:51;;;;;;;2.30;0.90;;;;;;;;;;5005252;28;20470;-71
2021/04/14 11:09:19;;;;;;;1.00;0.90;;;11.20;64.00;;;;;;5005017;28;20404;-72
2021/04/14 11:11:46;;;;;;;1.40;0.80;;;;;;;;;;5002855;28;20423;-73
2021/04/14 11:14:16;;;;;;;0.93;0.82;;;10.00;72.00;;;;;;5005460;28;20409;-73
2021/04/14 11:16:44;;;;;;;1.27;0.90;;;;;;;;;;4987220;28;20459;-72
2021/04/14 11:19:14;;;;;;;0.75;0.75;;;;;;;;;;4999687;28;20422;-72
2021/04/14 11:21:41;;;;;;;2.42;0.93;;;;;;;;;;5005016;28;20364;-73
2021/04/14 11:24:12;;;;;;;3.55;1.02;;;;;;;;;;5007673;28;20746;-72
2021/04/14 11:26:39;;;;;;;0.90;0.80;;;;;;;;;;5005014;28;20932;-72
2021/04/14 11:29:07;;;;;;;1.00;0.80;;;;;;;;;;5005570;28;20797;-73
2021/04/14 11:31:49;;;;;;;3.60;1.07;;;;;;;;;;5007430;28;20727;-73
2021/04/14 11:34:20;;;;;;;1.80;0.93;;;;;;;;;;5007102;28;20407;-73
2021/04/14 11:36:57;;;;;;;1.52;1.42;;;8.70;75.00;;;;;;5006368;28;20414;-73
2021/04/14 11:39:24;;;;;;;3.20;1.50;;;;;;;;;;4985771;28;21046;-76
2021/04/14 11:42:05;;;;;;;3.30;2.20;;;;;;;;;;5005735;28;21263;-74
2021/04/14 11:44:55;;;;;;;2.67;1.77;;;8.90;85.10;;;;;;5007394;28;20501;-73
2021/04/14 11:47:25;;;;;;;5.13;1.80;;;;;;;;;;5005436;28;20399;-75
2021/04/14 11:49:51;;;;;;;2.22;1.50;;;;;;;;;;5004998;28;20377;-74
2021/04/14 11:52:17;;;;;;;2.30;1.40;;;;;;;;;;4987644;28;20959;-73
2021/04/14 11:54:43;;;;;;;2.90;1.52;;;;;;;;;;5008001;28;20537;-72
2021/04/14 11:57:19;;;;;;;1.70;1.60;;;9.90;79.80;;;;;;4987933;28;20431;-75
2021/04/14 11:59:47;;;;;;;1.90;1.40;;;;;;;;;;5007816;28;20391;-72
2021/04/14 12:02:13;;;;;;;2.35;1.35;;;;;;;;;;4989160;28;20381;-75
2021/04/14 12:04:40;;;;;;;1.20;0.90;;;;;;;;;;5006567;28;20396;-72
2021/04/14 12:07:06;;;;;;;3.50;1.50;;;;;;;;;;5006931;28;20385;-73
2021/04/14 12:09:32;;;;;;;2.15;1.30;;;;;;;;;;5005559;28;20873;-72
2021/04/14 12:12:03;;;;;;;3.67;1.42;;;;;;;;;;4988122;28;20414;-72
2021/04/14 12:14:30;;;;;;;1.50;1.20;;;;;;;;;;4987567;28;20908;-75
2021/04/14 12:16:56;;;;;;;2.38;1.20;;;;;;;;;;5009701;28;20412;-75
2021/04/14 12:19:23;;;;;;;1.93;1.20;;;;;;;;;;4988614;28;20468;-73
2021/04/14 12:21:50;;;;;;;3.08;1.23;;;;;;;;;;5005743;28;20689;-76
2021/04/14 12:24:16;;;;;;;1.00;0.63;;;9.10;78.10;;;;;;5008731;28;20552;-73
2021/04/14 12:26:42;;;;;;;3.15;1.10;;;;;;;;;;5007623;28;20424;-74
2021/04/14 12:29:08;;;;;;;2.60;1.10;;;;;;;;;;5006295;28;20396;-74
2021/04/14 12:31:35;;;;;;;2.20;0.90;;;;;;;;;;4988347;28;20391;-76
2021/04/14 12:34:01;;;;;;;1.80;1.10;;;;;;;;;;4989553;28;20436;-75
2021/04/14 12:36:27;;;;;;;2.20;1.30;;;;;;;;;;4987193;28;21070;-75
2021/04/14 12:38:53;;;;;;;0.98;0.88;;;;;;;;;;5004761;28;20385;-75
2021/04/14 12:41:20;;;;;;;1.60;0.90;;;;;;;;;;5009619;28;20523;-74
2021/04/14 12:43:46;;;;;;;2.80;1.10;;;;;;;;;;5010291;28;20451;-74
2021/04/14 12:46:12;;;;;;;1.23;0.80;;;;;;;;;;5012395;28;20536;-73
2021/04/14 12:48:43;;;;;;;2.65;1.40;;;9.00;77.60;;;;;;5009014;28;20372;-73
2021/04/14 12:51:17;;;;;;;3.00;1.20;;;;;;;;;;5009950;28;20728;-72
2021/04/14 12:53:45;;;;;;;2.40;1.40;;;;;;;;;;5009260;28;20453;-73
2021/04/14 12:56:31;;;;;;;1.20;1.10;;;;;;;;;;5010251;28;20645;-73
2021/04/14 12:59:02;;;;;;;2.22;1.17;;;;;;;;;;5013769;28;20395;-72
2021/04/14 13:01:28;;;;;;;1.42;1.20;;;;;;;;;;5010904;28;20405;-73
2021/04/14 13:04:01;;;;;;;2.03;1.60;;;;;;;;;;5012273;28;20387;-74
2021/04/14 13:06:34;;;;;;;2.30;1.55;;;;;;;;;;5011286;28;20697;-73
2021/04/14 13:09:00;;;;;;;3.13;1.20;;;;;;;;;;5008201;28;20799;-73
2021/04/14 13:11:32;;;;;;;0.82;0.82;;;;;;;;;;4991306;28;20986;-73
2021/04/14 13:13:58;;;;;;;0.95;0.77;;;;;;;;;;5012447;28;20393;-75
2021/04/14 13:16:38;;;;;;;1.00;0.90;;;;;;;;;;5010227;28;20404;-72
2021/04/14 13:19:04;;;;;;;1.88;1.15;;;;;;;;;;5008682;28;20963;-73
2021/04/14 13:21:30;;;;;;;5.30;1.80;;;;;;;;;;5007894;28;20372;-74
2021/04/14 13:24:05;;;;;;;2.30;1.10;;;;;;;;;;5011021;28;20440;-74
2021/04/14 13:26:41;;;;;;;1.50;1.30;;;;;;;;;;4992195;28;20383;-74
2021/04/14 13:29:22;;;;;;;2.50;1.30;;;;;;;;;;5007034;28;20393;-73
2021/04/14 13:31:54;;;;;;;1.38;0.90;;;9.30;80.40;;;;;;5009661;28;20375;-74
2021/04/14 13:34:20;;;;;;;2.50;1.20;;;;;;;;;;5013554;28;20403;-74
2021/04/14 13:36:56;;;;;;;2.30;1.20;;;;;;;;;;5010011;28;20412;-73
2021/04/14 13:39:48;;;;;;;2.20;1.10;;;8.90;79.90;;;;;;5008068;28;21169;-73
2021/04/14 13:42:16;;;;;;;4.80;1.20;;;;;;;;;;5009677;28;20416;-73
2021/04/14 13:44:53;;;;;;;2.75;1.10;;;;;;;;;;5009499;28;20407;-73
2021/04/14 13:47:41;;;;;;;2.20;1.20;;;9.10;80.80;;;;;;5008283;28;20695;-72
2021/04/14 13:50:20;;;;;;;1.73;1.30;;;;;;;;;;4991830;28;20893;-73
2021/04/14 13:52:49;;;;;;;1.40;0.93;;;;;;;;;;4991017;28;20373;-72
2021/04/14 13:55:15;;;;;;;1.95;1.40;;;;;;;;;;5002007;28;20392;-73
2021/04/14 13:57:46;;;;;;;2.63;1.20;;;;;;;;;;5007631;28;20512;-73
2021/04/14 14:00:19;;;;;;;1.23;1.13;;;;;;;;;;5010139;28;20389;-74
2021/04/14 14:02:47;;;;;;;1.23;1.10;;;;;;;;;;5011732;28;20792;-73
2021/04/14 14:05:26;;;;;;;2.30;1.40;;;;;;;;;;5007256;28;20915;-73
2021/04/14 14:08:11;;;;;;;1.50;0.98;;;;;;;;;;5007517;28;20491;-73
2021/04/14 14:10:37;;;;;;;2.55;1.20;;;;;;;;;;4990172;28;20494;-75
2021/04/14 14:13:04;;;;;;;2.45;1.30;;;;;;;;;;5010552;28;20431;-73
2021/04/14 14:15:34;;;;;;;1.80;1.30;;;;;;;;;;5009047;28;20411;-73
2021/04/14 14:18:00;;;;;;;3.25;1.90;;;;;;;;;;5008302;28;20411;-73
2021/04/14 14:20:29;;;;;;;2.08;1.50;;;9.30;86.80;;;;;;5009661;28;20381;-72
2021/04/14 14:23:06;;;;;;;1.45;1.30;;;9.10;77.90;;;;;;5007902;28;20373;-73
2021/04/14 14:25:33;;;;;;;1.92;1.20;;;;;;;;;;5005882;28;21193;-73
2021/04/14 14:27:59;;;;;;;1.70;1.60;;;;;;;;;;5006618;28;20857;-75
2021/04/14 14:30:27;;;;;;;3.90;1.60;;;;;;;;;;5009356;28;20381;-73
2021/04/14 14:32:53;;;;;;;2.22;1.33;;;;;;;;;;5006747;28;21646;-75
2021/04/14 14:35:20;;;;;;;2.10;1.40;;;;;;;;;;5009395;28;20385;-73
2021/04/14 14:37:54;;;;;;;3.47;1.33;;;;;;;;;;5008763;28;20442;-73
2021/04/14 14:40:27;;;;;;;1.52;1.40;;;;;;;;;;5000964;28;20868;-73
2021/04/14 14:43:00;;;;;;;2.80;1.55;;;;;;;;;;5010843;28;20404;-74
2021/04/14 14:45:28;;;;;;;4.28;1.60;;;;;;;;;;5010401;28;20462;-74